createdAt,value
2018-12-16T00:02:05.709Z,10.00
2018-12-16T00:07:09.563Z,9.37
2018-12-16T00:12:13.528Z,9.87
2018-12-16T00:17:17.849Z,10.27
2018-12-16T00:22:22.071Z,10.17
2018-12-16T00:27:26.237Z,9.47
2018-12-16T00:32:30.835Z,9.87
2018-12-16T00:37:35.818Z,9.70
2018-12-16T00:42:39.798Z,10.40
2018-12-16T00:47:43.851Z,10.07
2018-12-16T00:52:49.099Z,9.73
2018-12-16T00:57:52.921Z,9.87
2018-12-16T01:02:57.940Z,9.50
2018-12-16T01:08:02.288Z,10.13
2018-12-16T01:13:05.956Z,9.80
2018-12-16T01:18:09.845Z,9.53
2018-12-16T01:23:13.897Z,10.13
2018-12-16T01:28:18.328Z,10.20
2018-12-16T01:33:22.864Z,9.73
2018-12-16T01:38:26.696Z,9.50
2018-12-16T01:48:59.592Z,10.57
2018-12-16T01:54:03.907Z,10.30
2018-12-16T01:59:08.130Z,10.97
2018-12-16T02:04:11.772Z,11.13
2018-12-16T02:09:16.569Z,10.20
2018-12-16T02:14:20.698Z,10.30
2018-12-16T02:19:24.519Z,10.37
2018-12-16T02:24:28.672Z,10.27
2018-12-16T02:29:33.676Z,10.53
2018-12-16T02:34:37.318Z,10.50
2018-12-16T02:39:41.087Z,10.47
2018-12-16T02:44:45.088Z,10.53
2018-12-16T02:49:49.617Z,9.83
2018-12-16T02:54:53.424Z,11.00
2018-12-16T02:59:57.600Z,11.47
2018-12-16T03:05:01.580Z,11.07
2018-12-16T03:10:06.649Z,10.27
2018-12-16T03:15:11.372Z,10.43
2018-12-16T03:20:15.670Z,12.20
2018-12-16T03:25:20.284Z,11.70
2018-12-16T03:30:24.733Z,11.43
2018-12-16T03:35:28.369Z,11.07
2018-12-16T03:40:32.034Z,11.67
2018-12-16T03:45:48.810Z,12.17
2018-12-16T03:50:52.661Z,11.73
2018-12-16T03:55:56.577Z,12.20
2018-12-16T04:01:00.434Z,12.23
2018-12-16T04:06:04.566Z,12.17
2018-12-16T04:11:08.956Z,12.60
2018-12-16T04:16:12.840Z,11.63
2018-12-16T04:21:16.879Z,13.10
2018-12-16T04:26:21.767Z,12.67
2018-12-16T04:31:25.718Z,13.17
2018-12-16T04:36:29.284Z,12.90
2018-12-16T04:41:33.420Z,13.23
2018-12-16T04:46:38.101Z,14.50
2018-12-16T04:51:42.062Z,14.93
2018-12-16T04:56:46.188Z,14.47
2018-12-16T05:01:50.363Z,13.63
2018-12-16T05:06:54.543Z,14.83
2018-12-16T05:11:59.952Z,13.57
2018-12-16T05:17:03.592Z,14.30
2018-12-16T05:22:07.725Z,14.93
2018-12-16T05:27:12.532Z,14.53
2018-12-16T05:32:16.634Z,14.13
2018-12-16T05:37:20.216Z,14.37
2018-12-16T05:42:24.416Z,13.47
2018-12-16T05:47:29.150Z,15.40
2018-12-16T05:52:32.941Z,14.73
2018-12-16T05:57:37.462Z,13.73
2018-12-16T06:02:41.086Z,14.47
2018-12-16T06:07:45.235Z,14.37
2018-12-16T06:12:48.838Z,14.97
2018-12-16T06:17:52.567Z,14.10
2018-12-16T06:22:56.070Z,14.53
2018-12-16T06:27:59.651Z,13.27
2018-12-16T06:33:03.498Z,13.30
2018-12-16T06:38:07.149Z,14.27
2018-12-16T06:43:11.912Z,14.33
2018-12-16T06:48:15.721Z,14.20
2018-12-16T06:53:21.225Z,13.77
2018-12-16T06:58:25.836Z,13.70
2018-12-16T07:03:29.342Z,13.53
2018-12-16T07:08:33.267Z,14.00
2018-12-16T07:13:37.532Z,13.63
2018-12-16T07:18:41.803Z,14.23
2018-12-16T07:23:45.872Z,13.67
2018-12-16T07:28:50.134Z,14.23
2018-12-16T07:33:53.929Z,13.23
2018-12-16T07:38:58.176Z,14.07
2018-12-16T07:44:02.286Z,14.07
2018-12-16T07:49:06.746Z,13.97
2018-12-16T07:54:16.052Z,14.63
2018-12-16T07:59:17.125Z,14.77
2018-12-16T08:04:22.289Z,14.37
2018-12-16T08:09:26.414Z,15.40
2018-12-16T08:14:32.036Z,14.30
2018-12-16T08:19:35.692Z,14.20
2018-12-16T08:24:40.003Z,14.67
2018-12-16T08:29:45.211Z,15.07
2018-12-16T08:34:49.112Z,15.77
2018-12-16T08:39:56.531Z,15.37
2018-12-16T08:45:00.287Z,15.20
2018-12-16T08:50:04.329Z,16.60
2018-12-16T08:55:08.852Z,15.37
2018-12-16T09:11:09.374Z,16.40
2018-12-16T09:16:13.938Z,15.57
2018-12-16T09:21:18.114Z,16.57
2018-12-16T09:26:21.965Z,16.93
2018-12-16T09:31:26.190Z,17.40
2018-12-16T09:36:30.202Z,17.07
2018-12-16T09:41:33.752Z,17.07
2018-12-16T09:46:37.903Z,18.37
2018-12-16T09:51:41.490Z,17.20
2018-12-16T09:56:45.035Z,18.37
2018-12-16T10:01:50.053Z,17.83
2018-12-16T10:06:53.659Z,17.57
2018-12-16T10:11:57.673Z,16.17
2018-12-16T10:17:01.460Z,16.70
2018-12-16T10:22:04.992Z,16.30
2018-12-16T10:27:09.658Z,16.97
2018-12-16T10:32:13.805Z,16.00
2018-12-16T10:37:18.321Z,15.63
2018-12-16T10:42:23.083Z,16.90
2018-12-16T10:47:27.172Z,16.30
2018-12-16T10:52:41.116Z,15.37
2018-12-16T10:57:45.444Z,15.53
2018-12-16T11:02:50.069Z,15.80
2018-12-16T11:07:56.085Z,15.37
2018-12-16T11:13:01.931Z,15.43
2018-12-16T11:18:05.915Z,15.93
2018-12-16T11:23:10.352Z,17.30
2018-12-16T11:28:14.224Z,17.80
2018-12-16T11:33:18.764Z,17.27
2018-12-16T11:38:25.943Z,16.93
2018-12-16T11:43:33.471Z,16.13
2018-12-16T11:48:43.666Z,16.17
2018-12-16T11:53:51.440Z,16.87
2018-12-16T11:58:59.340Z,16.67
2018-12-16T12:04:06.797Z,16.40
2018-12-16T12:09:16.747Z,17.07
2018-12-16T12:14:29.375Z,18.10
2018-12-16T12:19:42.357Z,17.03
2018-12-16T12:24:47.477Z,17.00
2018-12-16T12:29:51.103Z,17.33
2018-12-16T12:40:41.616Z,18.70
2018-12-16T12:45:46.121Z,19.10
2018-12-16T12:50:50.160Z,18.60
2018-12-16T12:55:53.923Z,18.33
2018-12-16T13:00:58.483Z,18.87
2018-12-16T13:06:02.124Z,17.97
2018-12-16T13:11:06.097Z,19.10
2018-12-16T13:16:09.807Z,19.53
2018-12-16T13:21:13.806Z,18.07
2018-12-16T13:26:17.679Z,19.13
2018-12-16T13:31:22.278Z,19.03
2018-12-16T13:41:54.139Z,18.83
2018-12-16T13:46:57.744Z,18.53
2018-12-16T13:52:01.924Z,19.17
2018-12-16T13:57:06.299Z,19.00
2018-12-16T14:02:10.723Z,19.13
2018-12-16T14:07:16.916Z,18.43
2018-12-16T14:12:20.862Z,18.80
2018-12-16T14:17:24.590Z,19.37
2018-12-16T14:22:28.262Z,18.47
2018-12-16T14:27:31.799Z,18.33
2018-12-16T14:32:36.004Z,19.23
2018-12-16T14:37:40.677Z,19.13
2018-12-16T14:42:50.798Z,19.27
2018-12-16T14:47:54.578Z,16.97
2018-12-16T14:52:58.752Z,17.57
2018-12-16T14:58:02.615Z,18.80
2018-12-16T15:03:06.379Z,18.27
2018-12-16T15:08:10.984Z,20.83
2018-12-16T15:13:14.524Z,19.20
2018-12-16T15:18:19.331Z,19.90
2018-12-16T15:23:23.924Z,18.97
2018-12-16T15:28:28.712Z,20.17
2018-12-16T15:33:32.995Z,18.47
2018-12-16T15:38:36.629Z,19.87
2018-12-16T15:43:40.803Z,19.83
2018-12-16T15:48:44.961Z,20.27
2018-12-16T15:53:49.946Z,19.63
2018-12-16T15:58:53.502Z,19.63
2018-12-16T16:03:57.393Z,20.57
2018-12-16T16:09:00.884Z,20.07
2018-12-16T16:14:05.360Z,19.57
2018-12-16T16:19:09.615Z,20.07
2018-12-16T16:24:13.982Z,20.47
2018-12-16T16:29:17.601Z,21.07
2018-12-16T16:34:21.821Z,21.40
2018-12-16T16:39:26.572Z,20.73
2018-12-16T16:44:30.782Z,20.03
2018-12-16T16:49:36.036Z,21.33
2018-12-16T16:54:39.696Z,19.73
2018-12-16T16:59:43.698Z,20.47
2018-12-16T17:04:49.381Z,22.33
2018-12-16T17:09:53.531Z,20.93
2018-12-16T17:14:57.344Z,21.03
2018-12-16T17:20:01.553Z,19.30
2018-12-16T17:25:05.324Z,21.13
2018-12-16T17:30:11.256Z,19.77
2018-12-16T17:35:14.944Z,19.97
2018-12-16T17:40:19.504Z,20.20
2018-12-16T18:01:47.991Z,20.20
2018-12-16T18:07:08.540Z,19.60
2018-12-16T18:12:13.164Z,19.10
2018-12-16T18:17:17.051Z,19.93
2018-12-16T18:22:20.802Z,20.77
2018-12-16T18:27:26.610Z,19.20
2018-12-16T18:38:05.442Z,19.23
2018-12-16T18:43:10.202Z,18.57
2018-12-16T18:48:24.760Z,19.43
2018-12-16T18:53:29.505Z,19.17
2018-12-16T18:58:33.307Z,18.30
2018-12-16T19:03:38.201Z,19.00
2018-12-16T19:08:42.749Z,19.20
2018-12-16T19:13:47.411Z,19.17
2018-12-16T19:18:52.246Z,18.40
2018-12-16T19:23:56.337Z,18.73
2018-12-16T19:29:01.145Z,18.37
2018-12-16T19:34:06.655Z,16.40
2018-12-16T19:39:10.616Z,17.50
2018-12-16T19:44:14.377Z,18.00
2018-12-16T19:49:18.934Z,17.67
2018-12-16T19:54:22.753Z,17.97
2018-12-16T19:59:32.332Z,18.37
2018-12-16T20:04:42.334Z,18.97
2018-12-16T20:09:46.136Z,18.27
2018-12-16T20:14:50.091Z,18.50
2018-12-16T20:19:54.799Z,18.03
2018-12-16T20:24:58.935Z,18.63
2018-12-16T20:30:03.115Z,18.00
2018-12-16T20:35:07.635Z,18.13
2018-12-16T20:40:12.555Z,17.57
2018-12-16T20:45:24.542Z,19.20
2018-12-16T20:50:28.046Z,18.07
2018-12-16T20:55:32.444Z,18.20
2018-12-16T21:00:36.939Z,18.53
2018-12-16T21:05:41.560Z,17.60
2018-12-16T21:10:46.331Z,14.63
2018-12-16T21:15:55.180Z,15.67
2018-12-16T21:21:10.250Z,16.73
2018-12-16T21:26:14.180Z,17.00
2018-12-16T21:31:18.924Z,18.23
2018-12-16T21:36:23.048Z,15.47
2018-12-16T21:41:27.035Z,15.33
2018-12-16T21:46:31.144Z,15.80
2018-12-16T21:51:35.940Z,15.90
2018-12-16T21:56:40.226Z,13.73
2018-12-16T22:01:43.808Z,15.50
2018-12-16T22:06:48.247Z,15.40
2018-12-16T22:11:51.928Z,14.40
2018-12-16T22:17:03.751Z,15.67
2018-12-16T22:22:08.452Z,14.73
2018-12-16T22:27:12.527Z,15.23
2018-12-16T22:37:44.051Z,14.77
2018-12-16T22:42:48.188Z,13.80
2018-12-16T22:47:51.981Z,13.97
2018-12-16T22:52:55.687Z,14.37
2018-12-16T23:03:30.812Z,13.73
2018-12-16T23:08:34.914Z,13.27
2018-12-16T23:13:38.664Z,13.23
2018-12-16T23:18:42.911Z,13.40
2018-12-16T23:23:47.012Z,12.70
2018-12-16T23:28:52.510Z,12.47
2018-12-16T23:33:56.476Z,12.20
2018-12-16T23:39:00.383Z,13.90
2018-12-16T23:44:04.251Z,13.40
2018-12-16T23:49:08.244Z,12.37
2018-12-16T23:54:12.025Z,13.40
2018-12-16T23:59:15.772Z,13.40
